sensor_id;sensor_type;location;lat;lon;timestamp;P1;durP1;ratioP1;P2;durP2;ratioP2
27833;SDS011;15200;50.570;7.244;2023-04-24T00:01:43;1.45;;;0.30;;
27833;SDS011;15200;50.570;7.244;2023-04-24T00:04:10;1.90;;;0.57;;
27833;SDS011;15200;50.570;7.244;2023-04-24T00:06:39;1.37;;;0.47;;
27833;SDS011;15200;50.570;7.244;2023-04-24T00:09:09;0.62;;;0.50;;
27833;SDS011;15200;50.570;7.244;2023-04-24T00:11:36;1.20;;;0.60;;
27833;SDS011;15200;50.570;7.244;2023-04-24T00:14:04;1.32;;;0.65;;
27833;SDS011;15200;50.570;7.244;2023-04-24T00:16:31;0.60;;;0.47;;
27833;SDS011;15200;50.570;7.244;2023-04-24T00:18:59;1.95;;;0.60;;
27833;SDS011;15200;50.570;7.244;2023-04-24T00:21:27;0.33;;;0.33;;
27833;SDS011;15200;50.570;7.244;2023-04-24T00:23:54;0.82;;;0.30;;
27833;SDS011;15200;50.570;7.244;2023-04-24T00:26:21;0.53;;;0.35;;
27833;SDS011;15200;50.570;7.244;2023-04-24T00:28:49;0.75;;;0.47;;
27833;SDS011;15200;50.570;7.244;2023-04-24T00:31:16;1.62;;;0.50;;
27833;SDS011;15200;50.570;7.244;2023-04-24T00:33:44;1.92;;;0.50;;
27833;SDS011;15200;50.570;7.244;2023-04-24T00:36:11;3.35;;;0.57;;
27833;SDS011;15200;50.570;7.244;2023-04-24T00:38:38;1.07;;;0.55;;
27833;SDS011;15200;50.570;7.244;2023-04-24T00:41:06;0.37;;;0.30;;
27833;SDS011;15200;50.570;7.244;2023-04-24T00:43:34;2.08;;;0.57;;
27833;SDS011;15200;50.570;7.244;2023-04-24T00:46:01;0.72;;;0.40;;
27833;SDS011;15200;50.570;7.244;2023-04-24T00:48:28;0.30;;;0.30;;
27833;SDS011;15200;50.570;7.244;2023-04-24T00:50:56;1.12;;;0.45;;
27833;SDS011;15200;50.570;7.244;2023-04-24T00:53:24;0.35;;;0.35;;
27833;SDS011;15200;50.570;7.244;2023-04-24T00:55:52;0.45;;;0.30;;
27833;SDS011;15200;50.570;7.244;2023-04-24T00:58:19;0.47;;;0.30;;
27833;SDS011;15200;50.570;7.244;2023-04-24T01:00:47;0.65;;;0.20;;
27833;SDS011;15200;50.570;7.244;2023-04-24T01:03:16;0.20;;;0.20;;
27833;SDS011;15200;50.570;7.244;2023-04-24T01:05:44;0.35;;;0.30;;
27833;SDS011;15200;50.570;7.244;2023-04-24T01:08:11;1.25;;;0.40;;
27833;SDS011;15200;50.570;7.244;2023-04-24T01:10:39;0.40;;;0.20;;
27833;SDS011;15200;50.570;7.244;2023-04-24T01:13:08;2.12;;;0.30;;
27833;SDS011;15200;50.570;7.244;2023-04-24T01:15:35;1.70;;;0.30;;
27833;SDS011;15200;50.570;7.244;2023-04-24T01:18:02;0.98;;;0.47;;
27833;SDS011;15200;50.570;7.244;2023-04-24T01:20:30;0.40;;;0.30;;
27833;SDS011;15200;50.570;7.244;2023-04-24T01:22:58;1.00;;;0.35;;
27833;SDS011;15200;50.570;7.244;2023-04-24T01:25:25;0.30;;;0.30;;
27833;SDS011;15200;50.570;7.244;2023-04-24T01:27:52;0.40;;;0.30;;
27833;SDS011;15200;50.570;7.244;2023-04-24T01:30:20;0.50;;;0.33;;
27833;SDS011;15200;50.570;7.244;2023-04-24T01:32:47;0.85;;;0.57;;
27833;SDS011;15200;50.570;7.244;2023-04-24T01:35:15;0.30;;;0.30;;
27833;SDS011;15200;50.570;7.244;2023-04-24T01:37:42;0.80;;;0.40;;
27833;SDS011;15200;50.570;7.244;2023-04-24T01:40:09;2.15;;;0.30;;
27833;SDS011;15200;50.570;7.244;2023-04-24T01:42:37;0.85;;;0.62;;
27833;SDS011;15200;50.570;7.244;2023-04-24T01:45:05;0.57;;;0.30;;
27833;SDS011;15200;50.570;7.244;2023-04-24T01:47:33;0.30;;;0.30;;
27833;SDS011;15200;50.570;7.244;2023-04-24T01:50:00;1.60;;;0.40;;
27833;SDS011;15200;50.570;7.244;2023-04-24T01:52:28;0.57;;;0.40;;
27833;SDS011;15200;50.570;7.244;2023-04-24T01:54:59;0.80;;;0.80;;
27833;SDS011;15200;50.570;7.244;2023-04-24T01:57:25;0.72;;;0.62;;
27833;SDS011;15200;50.570;7.244;2023-04-24T01:59:53;0.85;;;0.50;;
27833;SDS011;15200;50.570;7.244;2023-04-24T02:02:20;0.62;;;0.62;;
27833;SDS011;15200;50.570;7.244;2023-04-24T02:04:50;1.57;;;0.80;;
27833;SDS011;15200;50.570;7.244;2023-04-24T02:07:17;1.95;;;0.75;;
27833;SDS011;15200;50.570;7.244;2023-04-24T02:09:44;1.27;;;0.65;;
27833;SDS011;15200;50.570;7.244;2023-04-24T02:12:12;1.55;;;0.60;;
27833;SDS011;15200;50.570;7.244;2023-04-24T02:14:39;2.17;;;0.80;;
27833;SDS011;15200;50.570;7.244;2023-04-24T02:17:06;1.22;;;0.70;;
27833;SDS011;15200;50.570;7.244;2023-04-24T02:19:33;0.70;;;0.70;;
27833;SDS011;15200;50.570;7.244;2023-04-24T02:22:01;1.00;;;0.75;;
27833;SDS011;15200;50.570;7.244;2023-04-24T02:24:28;2.47;;;1.40;;
27833;SDS011;15200;50.570;7.244;2023-04-24T02:26:55;1.70;;;1.00;;
27833;SDS011;15200;50.570;7.244;2023-04-24T02:29:24;1.47;;;1.22;;
27833;SDS011;15200;50.570;7.244;2023-04-24T02:31:51;1.75;;;1.65;;
27833;SDS011;15200;50.570;7.244;2023-04-24T02:34:18;1.40;;;1.27;;
27833;SDS011;15200;50.570;7.244;2023-04-24T02:36:46;1.30;;;1.20;;
27833;SDS011;15200;50.570;7.244;2023-04-24T02:39:13;1.70;;;1.40;;
27833;SDS011;15200;50.570;7.244;2023-04-24T02:41:43;2.10;;;1.80;;
27833;SDS011;15200;50.570;7.244;2023-04-24T02:44:10;3.85;;;1.50;;
27833;SDS011;15200;50.570;7.244;2023-04-24T02:46:37;1.50;;;1.40;;
27833;SDS011;15200;50.570;7.244;2023-04-24T02:49:05;3.12;;;1.87;;
27833;SDS011;15200;50.570;7.244;2023-04-24T02:51:32;1.98;;;1.77;;
27833;SDS011;15200;50.570;7.244;2023-04-24T02:53:59;2.12;;;1.75;;
27833;SDS011;15200;50.570;7.244;2023-04-24T02:56:26;1.95;;;1.50;;
27833;SDS011;15200;50.570;7.244;2023-04-24T02:58:54;2.75;;;2.22;;
27833;SDS011;15200;50.570;7.244;2023-04-24T03:04:08;2.15;;;1.82;;
27833;SDS011;15200;50.570;7.244;2023-04-24T03:06:36;2.77;;;1.92;;
27833;SDS011;15200;50.570;7.244;2023-04-24T03:09:03;6.05;;;2.65;;
27833;SDS011;15200;50.570;7.244;2023-04-24T03:11:31;4.00;;;2.83;;
27833;SDS011;15200;50.570;7.244;2023-04-24T03:13:58;3.47;;;2.30;;
27833;SDS011;15200;50.570;7.244;2023-04-24T03:16:26;6.00;;;2.87;;
27833;SDS011;15200;50.570;7.244;2023-04-24T03:18:53;3.45;;;2.50;;
27833;SDS011;15200;50.570;7.244;2023-04-24T03:21:21;7.35;;;2.20;;
27833;SDS011;15200;50.570;7.244;2023-04-24T03:23:49;2.72;;;2.33;;
27833;SDS011;15200;50.570;7.244;2023-04-24T03:26:16;2.30;;;2.10;;
27833;SDS011;15200;50.570;7.244;2023-04-24T03:28:44;3.67;;;2.20;;
27833;SDS011;15200;50.570;7.244;2023-04-24T03:31:11;2.40;;;2.00;;
27833;SDS011;15200;50.570;7.244;2023-04-24T03:33:38;3.87;;;2.15;;
27833;SDS011;15200;50.570;7.244;2023-04-24T03:36:06;2.42;;;2.00;;
27833;SDS011;15200;50.570;7.244;2023-04-24T03:38:33;2.85;;;2.30;;
27833;SDS011;15200;50.570;7.244;2023-04-24T03:41:00;2.90;;;2.35;;
27833;SDS011;15200;50.570;7.244;2023-04-24T03:43:28;2.60;;;2.20;;
27833;SDS011;15200;50.570;7.244;2023-04-24T03:45:55;3.30;;;2.58;;
27833;SDS011;15200;50.570;7.244;2023-04-24T03:48:22;3.77;;;2.92;;
27833;SDS011;15200;50.570;7.244;2023-04-24T03:50:50;3.80;;;2.87;;
27833;SDS011;15200;50.570;7.244;2023-04-24T03:53:17;3.50;;;2.35;;
27833;SDS011;15200;50.570;7.244;2023-04-24T03:55:46;3.00;;;2.30;;
27833;SDS011;15200;50.570;7.244;2023-04-24T03:58:13;4.10;;;2.75;;
27833;SDS011;15200;50.570;7.244;2023-04-24T04:00:40;4.80;;;3.27;;
27833;SDS011;15200;50.570;7.244;2023-04-24T04:03:08;3.62;;;2.65;;
27833;SDS011;15200;50.570;7.244;2023-04-24T04:05:35;2.87;;;2.42;;
27833;SDS011;15200;50.570;7.244;2023-04-24T04:08:02;3.02;;;2.65;;
27833;SDS011;15200;50.570;7.244;2023-04-24T04:10:30;3.27;;;2.75;;
27833;SDS011;15200;50.570;7.244;2023-04-24T04:12:57;3.15;;;2.70;;
27833;SDS011;15200;50.570;7.244;2023-04-24T04:15:24;3.80;;;2.77;;
27833;SDS011;15200;50.570;7.244;2023-04-24T04:17:52;2.42;;;2.10;;
27833;SDS011;15200;50.570;7.244;2023-04-24T04:20:19;6.35;;;3.50;;
27833;SDS011;15200;50.570;7.244;2023-04-24T04:22:46;4.80;;;2.80;;
27833;SDS011;15200;50.570;7.244;2023-04-24T04:25:14;3.72;;;2.70;;
27833;SDS011;15200;50.570;7.244;2023-04-24T04:27:41;5.95;;;3.35;;
27833;SDS011;15200;50.570;7.244;2023-04-24T04:30:08;2.72;;;2.35;;
27833;SDS011;15200;50.570;7.244;2023-04-24T04:32:36;4.03;;;2.42;;
27833;SDS011;15200;50.570;7.244;2023-04-24T04:35:03;3.25;;;2.33;;
27833;SDS011;15200;50.570;7.244;2023-04-24T04:37:31;3.58;;;2.50;;
27833;SDS011;15200;50.570;7.244;2023-04-24T04:39:59;3.12;;;2.55;;
27833;SDS011;15200;50.570;7.244;2023-04-24T04:42:27;3.58;;;2.62;;
27833;SDS011;15200;50.570;7.244;2023-04-24T04:44:55;6.20;;;2.80;;
27833;SDS011;15200;50.570;7.244;2023-04-24T04:47:23;3.72;;;2.80;;
27833;SDS011;15200;50.570;7.244;2023-04-24T04:49:51;7.03;;;2.83;;
27833;SDS011;15200;50.570;7.244;2023-04-24T04:52:18;4.90;;;2.87;;
27833;SDS011;15200;50.570;7.244;2023-04-24T04:54:45;4.42;;;2.62;;
27833;SDS011;15200;50.570;7.244;2023-04-24T04:57:13;4.95;;;2.85;;
27833;SDS011;15200;50.570;7.244;2023-04-24T04:59:40;4.30;;;2.50;;
27833;SDS011;15200;50.570;7.244;2023-04-24T05:02:08;4.45;;;3.00;;
27833;SDS011;15200;50.570;7.244;2023-04-24T05:04:35;5.95;;;2.95;;
27833;SDS011;15200;50.570;7.244;2023-04-24T05:09:49;5.80;;;2.85;;
27833;SDS011;15200;50.570;7.244;2023-04-24T05:12:17;3.17;;;2.40;;
27833;SDS011;15200;50.570;7.244;2023-04-24T05:14:45;5.35;;;2.75;;
27833;SDS011;15200;50.570;7.244;2023-04-24T05:17:12;3.12;;;2.58;;
27833;SDS011;15200;50.570;7.244;2023-04-24T05:19:39;4.05;;;3.02;;
27833;SDS011;15200;50.570;7.244;2023-04-24T05:22:07;4.00;;;2.80;;
27833;SDS011;15200;50.570;7.244;2023-04-24T05:24:36;2.98;;;2.47;;
27833;SDS011;15200;50.570;7.244;2023-04-24T05:27:03;3.95;;;2.67;;
27833;SDS011;15200;50.570;7.244;2023-04-24T05:29:33;3.00;;;2.40;;
27833;SDS011;15200;50.570;7.244;2023-04-24T05:32:01;3.00;;;2.70;;
27833;SDS011;15200;50.570;7.244;2023-04-24T05:34:28;3.47;;;2.77;;
27833;SDS011;15200;50.570;7.244;2023-04-24T05:36:55;2.87;;;2.60;;
27833;SDS011;15200;50.570;7.244;2023-04-24T05:39:22;3.62;;;2.67;;
27833;SDS011;15200;50.570;7.244;2023-04-24T05:41:51;4.15;;;2.80;;
27833;SDS011;15200;50.570;7.244;2023-04-24T05:44:18;3.50;;;2.67;;
27833;SDS011;15200;50.570;7.244;2023-04-24T05:46:46;4.20;;;2.65;;
27833;SDS011;15200;50.570;7.244;2023-04-24T05:52:00;4.22;;;2.72;;
27833;SDS011;15200;50.570;7.244;2023-04-24T05:54:27;6.28;;;2.72;;
27833;SDS011;15200;50.570;7.244;2023-04-24T05:56:54;9.10;;;3.30;;
27833;SDS011;15200;50.570;7.244;2023-04-24T05:59:22;5.28;;;3.00;;
27833;SDS011;15200;50.570;7.244;2023-04-24T06:01:49;2.60;;;2.35;;
27833;SDS011;15200;50.570;7.244;2023-04-24T06:04:17;3.12;;;2.70;;
27833;SDS011;15200;50.570;7.244;2023-04-24T06:06:44;4.33;;;2.75;;
27833;SDS011;15200;50.570;7.244;2023-04-24T06:09:11;5.35;;;3.25;;
27833;SDS011;15200;50.570;7.244;2023-04-24T06:11:39;5.87;;;2.65;;
27833;SDS011;15200;50.570;7.244;2023-04-24T06:14:06;4.65;;;3.08;;
27833;SDS011;15200;50.570;7.244;2023-04-24T06:16:33;4.53;;;3.02;;
27833;SDS011;15200;50.570;7.244;2023-04-24T06:19:01;5.60;;;3.50;;
27833;SDS011;15200;50.570;7.244;2023-04-24T06:21:28;6.55;;;3.40;;
27833;SDS011;15200;50.570;7.244;2023-04-24T06:23:55;3.22;;;2.92;;
27833;SDS011;15200;50.570;7.244;2023-04-24T06:26:23;3.65;;;3.10;;
27833;SDS011;15200;50.570;7.244;2023-04-24T06:28:51;6.08;;;3.37;;
27833;SDS011;15200;50.570;7.244;2023-04-24T06:31:20;4.90;;;2.98;;
27833;SDS011;15200;50.570;7.244;2023-04-24T06:33:48;4.50;;;3.20;;
27833;SDS011;15200;50.570;7.244;2023-04-24T06:36:15;4.00;;;3.47;;
27833;SDS011;15200;50.570;7.244;2023-04-24T06:38:43;6.65;;;4.17;;
27833;SDS011;15200;50.570;7.244;2023-04-24T06:41:11;6.17;;;3.58;;
27833;SDS011;15200;50.570;7.244;2023-04-24T06:43:39;5.00;;;3.85;;
27833;SDS011;15200;50.570;7.244;2023-04-24T06:46:06;3.58;;;3.10;;
27833;SDS011;15200;50.570;7.244;2023-04-24T06:48:33;6.85;;;3.98;;
27833;SDS011;15200;50.570;7.244;2023-04-24T06:51:01;4.17;;;3.55;;
27833;SDS011;15200;50.570;7.244;2023-04-24T06:56:16;3.50;;;2.87;;
27833;SDS011;15200;50.570;7.244;2023-04-24T06:58:43;4.03;;;3.00;;
27833;SDS011;15200;50.570;7.244;2023-04-24T07:01:11;3.35;;;2.80;;
27833;SDS011;15200;50.570;7.244;2023-04-24T07:03:38;3.35;;;2.67;;
27833;SDS011;15200;50.570;7.244;2023-04-24T07:06:06;2.85;;;2.55;;
27833;SDS011;15200;50.570;7.244;2023-04-24T07:08:33;3.40;;;2.62;;
27833;SDS011;15200;50.570;7.244;2023-04-24T07:11:02;3.85;;;2.27;;
27833;SDS011;15200;50.570;7.244;2023-04-24T07:13:29;3.77;;;2.60;;
27833;SDS011;15200;50.570;7.244;2023-04-24T07:15:56;4.03;;;2.30;;
27833;SDS011;15200;50.570;7.244;2023-04-24T07:18:24;2.55;;;2.35;;
27833;SDS011;15200;50.570;7.244;2023-04-24T07:20:51;2.65;;;2.10;;
27833;SDS011;15200;50.570;7.244;2023-04-24T07:23:19;2.20;;;1.60;;
27833;SDS011;15200;50.570;7.244;2023-04-24T07:25:46;3.05;;;1.82;;
27833;SDS011;15200;50.570;7.244;2023-04-24T07:28:13;1.77;;;1.50;;
27833;SDS011;15200;50.570;7.244;2023-04-24T07:30:41;2.00;;;1.80;;
27833;SDS011;15200;50.570;7.244;2023-04-24T07:33:08;1.92;;;1.60;;
27833;SDS011;15200;50.570;7.244;2023-04-24T07:35:37;1.72;;;1.60;;
27833;SDS011;15200;50.570;7.244;2023-04-24T07:38:05;2.27;;;1.67;;
27833;SDS011;15200;50.570;7.244;2023-04-24T07:43:19;2.90;;;2.40;;
27833;SDS011;15200;50.570;7.244;2023-04-24T07:45:47;4.00;;;1.42;;
27833;SDS011;15200;50.570;7.244;2023-04-24T07:48:15;2.25;;;1.40;;
27833;SDS011;15200;50.570;7.244;2023-04-24T07:50:44;4.40;;;1.30;;
27833;SDS011;15200;50.570;7.244;2023-04-24T07:53:11;2.00;;;1.40;;
27833;SDS011;15200;50.570;7.244;2023-04-24T07:55:38;3.25;;;1.40;;
27833;SDS011;15200;50.570;7.244;2023-04-24T07:58:06;1.40;;;1.30;;
27833;SDS011;15200;50.570;7.244;2023-04-24T08:00:33;1.55;;;1.32;;
27833;SDS011;15200;50.570;7.244;2023-04-24T08:03:01;1.62;;;1.10;;
27833;SDS011;15200;50.570;7.244;2023-04-24T08:05:28;2.83;;;1.40;;
27833;SDS011;15200;50.570;7.244;2023-04-24T08:07:55;1.30;;;1.10;;
27833;SDS011;15200;50.570;7.244;2023-04-24T08:10:23;1.00;;;0.85;;
27833;SDS011;15200;50.570;7.244;2023-04-24T08:12:50;1.30;;;1.20;;
27833;SDS011;15200;50.570;7.244;2023-04-24T08:15:17;2.50;;;0.90;;
27833;SDS011;15200;50.570;7.244;2023-04-24T08:17:45;1.42;;;1.07;;
27833;SDS011;15200;50.570;7.244;2023-04-24T08:20:12;2.10;;;0.95;;
27833;SDS011;15200;50.570;7.244;2023-04-24T08:22:40;1.12;;;1.02;;
27833;SDS011;15200;50.570;7.244;2023-04-24T08:25:08;0.95;;;0.80;;
27833;SDS011;15200;50.570;7.244;2023-04-24T08:27:36;1.15;;;1.02;;
27833;SDS011;15200;50.570;7.244;2023-04-24T08:30:04;2.17;;;0.98;;
27833;SDS011;15200;50.570;7.244;2023-04-24T08:32:31;0.90;;;0.90;;
27833;SDS011;15200;50.570;7.244;2023-04-24T08:34:59;0.90;;;0.82;;
27833;SDS011;15200;50.570;7.244;2023-04-24T08:37:26;1.67;;;0.88;;
27833;SDS011;15200;50.570;7.244;2023-04-24T08:39:54;1.25;;;0.90;;
27833;SDS011;15200;50.570;7.244;2023-04-24T08:42:21;1.27;;;0.95;;
27833;SDS011;15200;50.570;7.244;2023-04-24T08:44:49;2.20;;;0.93;;
27833;SDS011;15200;50.570;7.244;2023-04-24T08:47:16;1.55;;;0.60;;
27833;SDS011;15200;50.570;7.244;2023-04-24T08:49:44;0.60;;;0.60;;
27833;SDS011;15200;50.570;7.244;2023-04-24T08:52:13;0.55;;;0.55;;
27833;SDS011;15200;50.570;7.244;2023-04-24T08:54:41;0.40;;;0.40;;
27833;SDS011;15200;50.570;7.244;2023-04-24T08:57:09;0.60;;;0.60;;
27833;SDS011;15200;50.570;7.244;2023-04-24T08:59:37;0.40;;;0.40;;
27833;SDS011;15200;50.570;7.244;2023-04-24T09:02:05;0.40;;;0.40;;
27833;SDS011;15200;50.570;7.244;2023-04-24T09:04:33;0.30;;;0.30;;
27833;SDS011;15200;50.570;7.244;2023-04-24T09:07:01;0.30;;;0.30;;
27833;SDS011;15200;50.570;7.244;2023-04-24T09:09:29;0.30;;;0.30;;
27833;SDS011;15200;50.570;7.244;2023-04-24T09:11:57;0.42;;;0.35;;
27833;SDS011;15200;50.570;7.244;2023-04-24T09:14:25;1.00;;;0.60;;
27833;SDS011;15200;50.570;7.244;2023-04-24T09:16:54;1.02;;;0.42;;
27833;SDS011;15200;50.570;7.244;2023-04-24T09:19:21;1.27;;;0.60;;
27833;SDS011;15200;50.570;7.244;2023-04-24T09:21:48;2.55;;;0.50;;
27833;SDS011;15200;50.570;7.244;2023-04-24T09:27:02;0.55;;;0.50;;
27833;SDS011;15200;50.570;7.244;2023-04-24T09:29:30;0.40;;;0.40;;
27833;SDS011;15200;50.570;7.244;2023-04-24T09:31:59;0.57;;;0.40;;
27833;SDS011;15200;50.570;7.244;2023-04-24T09:34:26;1.35;;;0.50;;
27833;SDS011;15200;50.570;7.244;2023-04-24T09:36:54;0.47;;;0.40;;
27833;SDS011;15200;50.570;7.244;2023-04-24T09:39:21;0.70;;;0.50;;
27833;SDS011;15200;50.570;7.244;2023-04-24T09:41:49;0.35;;;0.35;;
27833;SDS011;15200;50.570;7.244;2023-04-24T09:44:18;0.60;;;0.50;;
27833;SDS011;15200;50.570;7.244;2023-04-24T09:46:50;0.60;;;0.60;;
27833;SDS011;15200;50.570;7.244;2023-04-24T09:52:14;0.53;;;0.40;;
27833;SDS011;15200;50.570;7.244;2023-04-24T09:54:21;0.50;;;0.50;;
27833;SDS011;15200;50.570;7.244;2023-04-24T09:56:50;0.50;;;0.50;;
27833;SDS011;15200;50.570;7.244;2023-04-24T09:59:21;0.60;;;0.60;;
27833;SDS011;15200;50.570;7.244;2023-04-24T10:02:16;1.35;;;0.82;;
27833;SDS011;15200;50.570;7.244;2023-04-24T10:04:36;1.67;;;0.53;;
27833;SDS011;15200;50.570;7.244;2023-04-24T10:07:03;1.07;;;0.60;;
27833;SDS011;15200;50.570;7.244;2023-04-24T10:09:32;0.65;;;0.60;;
27833;SDS011;15200;50.570;7.244;2023-04-24T10:12:00;0.50;;;0.47;;
27833;SDS011;15200;50.570;7.244;2023-04-24T10:14:28;0.65;;;0.55;;
27833;SDS011;15200;50.570;7.244;2023-04-24T10:16:56;3.70;;;0.65;;
27833;SDS011;15200;50.570;7.244;2023-04-24T10:19:25;0.40;;;0.40;;
27833;SDS011;15200;50.570;7.244;2023-04-24T10:21:52;1.02;;;0.70;;
27833;SDS011;15200;50.570;7.244;2023-04-24T10:24:21;1.50;;;0.82;;
27833;SDS011;15200;50.570;7.244;2023-04-24T10:26:49;1.00;;;0.85;;
27833;SDS011;15200;50.570;7.244;2023-04-24T10:29:19;0.98;;;0.68;;
27833;SDS011;15200;50.570;7.244;2023-04-24T10:31:47;1.22;;;0.70;;
27833;SDS011;15200;50.570;7.244;2023-04-24T10:34:15;0.70;;;0.70;;
27833;SDS011;15200;50.570;7.244;2023-04-24T10:36:49;0.90;;;0.88;;
27833;SDS011;15200;50.570;7.244;2023-04-24T10:39:13;0.70;;;0.70;;
27833;SDS011;15200;50.570;7.244;2023-04-24T10:41:41;2.17;;;0.80;;
27833;SDS011;15200;50.570;7.244;2023-04-24T10:44:09;1.35;;;1.00;;
27833;SDS011;15200;50.570;7.244;2023-04-24T10:46:36;1.50;;;1.15;;
27833;SDS011;15200;50.570;7.244;2023-04-24T10:49:07;2.35;;;1.10;;
27833;SDS011;15200;50.570;7.244;2023-04-24T10:51:47;2.27;;;1.30;;
27833;SDS011;15200;50.570;7.244;2023-04-24T10:54:28;4.33;;;1.40;;
27833;SDS011;15200;50.570;7.244;2023-04-24T10:56:53;1.77;;;1.60;;
27833;SDS011;15200;50.570;7.244;2023-04-24T10:59:34;2.98;;;1.87;;
27833;SDS011;15200;50.570;7.244;2023-04-24T11:01:53;2.77;;;1.57;;
27833;SDS011;15200;50.570;7.244;2023-04-24T11:04:30;5.45;;;2.05;;
27833;SDS011;15200;50.570;7.244;2023-04-24T11:06:58;1.92;;;1.80;;
27833;SDS011;15200;50.570;7.244;2023-04-24T11:09:27;3.77;;;2.00;;
27833;SDS011;15200;50.570;7.244;2023-04-24T11:12:07;3.85;;;2.05;;
27833;SDS011;15200;50.570;7.244;2023-04-24T11:17:29;3.17;;;2.20;;
27833;SDS011;15200;50.570;7.244;2023-04-24T11:20:16;3.95;;;1.98;;
27833;SDS011;15200;50.570;7.244;2023-04-24T11:22:41;1.50;;;1.25;;
27833;SDS011;15200;50.570;7.244;2023-04-24T11:25:09;2.50;;;1.80;;
27833;SDS011;15200;50.570;7.244;2023-04-24T11:27:43;4.20;;;1.82;;
27833;SDS011;15200;50.570;7.244;2023-04-24T11:30:07;2.72;;;1.62;;
27833;SDS011;15200;50.570;7.244;2023-04-24T11:32:39;2.83;;;1.50;;
27833;SDS011;15200;50.570;7.244;2023-04-24T11:35:12;2.75;;;2.02;;
27833;SDS011;15200;50.570;7.244;2023-04-24T11:37:36;4.60;;;1.95;;
27833;SDS011;15200;50.570;7.244;2023-04-24T11:40:08;4.47;;;2.60;;
27833;SDS011;15200;50.570;7.244;2023-04-24T11:42:42;2.92;;;1.90;;
27833;SDS011;15200;50.570;7.244;2023-04-24T11:47:37;5.08;;;2.25;;
27833;SDS011;15200;50.570;7.244;2023-04-24T11:50:05;3.33;;;2.40;;
27833;SDS011;15200;50.570;7.244;2023-04-24T11:52:33;3.52;;;2.47;;
27833;SDS011;15200;50.570;7.244;2023-04-24T11:55:00;3.67;;;2.62;;
27833;SDS011;15200;50.570;7.244;2023-04-24T11:57:28;2.52;;;1.92;;
27833;SDS011;15200;50.570;7.244;2023-04-24T11:59:57;2.67;;;1.85;;
27833;SDS011;15200;50.570;7.244;2023-04-24T12:02:25;3.15;;;1.47;;
27833;SDS011;15200;50.570;7.244;2023-04-24T12:04:53;3.05;;;1.77;;
27833;SDS011;15200;50.570;7.244;2023-04-24T12:07:23;2.27;;;1.52;;
27833;SDS011;15200;50.570;7.244;2023-04-24T12:09:58;4.08;;;1.70;;
27833;SDS011;15200;50.570;7.244;2023-04-24T12:12:27;2.22;;;1.32;;
27833;SDS011;15200;50.570;7.244;2023-04-24T12:14:55;3.67;;;1.72;;
27833;SDS011;15200;50.570;7.244;2023-04-24T12:17:24;1.40;;;1.12;;
27833;SDS011;15200;50.570;7.244;2023-04-24T12:19:52;1.98;;;1.20;;
27833;SDS011;15200;50.570;7.244;2023-04-24T12:22:21;4.33;;;1.70;;
27833;SDS011;15200;50.570;7.244;2023-04-24T12:24:58;3.12;;;1.95;;
27833;SDS011;15200;50.570;7.244;2023-04-24T12:27:25;3.42;;;2.10;;
27833;SDS011;15200;50.570;7.244;2023-04-24T12:29:56;2.87;;;1.92;;
27833;SDS011;15200;50.570;7.244;2023-04-24T12:32:23;6.08;;;2.75;;
27833;SDS011;15200;50.570;7.244;2023-04-24T12:34:53;4.12;;;2.83;;
27833;SDS011;15200;50.570;7.244;2023-04-24T12:37:22;4.42;;;2.80;;
27833;SDS011;15200;50.570;7.244;2023-04-24T12:40:00;4.67;;;2.33;;
27833;SDS011;15200;50.570;7.244;2023-04-24T12:42:28;3.70;;;2.27;;
27833;SDS011;15200;50.570;7.244;2023-04-24T12:44:56;4.72;;;2.65;;
27833;SDS011;15200;50.570;7.244;2023-04-24T12:47:25;5.15;;;2.50;;
27833;SDS011;15200;50.570;7.244;2023-04-24T12:49:53;6.15;;;2.52;;
27833;SDS011;15200;50.570;7.244;2023-04-24T12:52:25;3.98;;;2.62;;
27833;SDS011;15200;50.570;7.244;2023-04-24T12:54:53;3.55;;;2.45;;
27833;SDS011;15200;50.570;7.244;2023-04-24T12:57:23;4.40;;;2.65;;
27833;SDS011;15200;50.570;7.244;2023-04-24T12:59:50;4.50;;;3.12;;
27833;SDS011;15200;50.570;7.244;2023-04-24T13:02:17;7.53;;;2.70;;
27833;SDS011;15200;50.570;7.244;2023-04-24T13:04:45;4.08;;;2.77;;
27833;SDS011;15200;50.570;7.244;2023-04-24T13:07:13;5.05;;;3.15;;
27833;SDS011;15200;50.570;7.244;2023-04-24T13:09:41;8.95;;;3.30;;
27833;SDS011;15200;50.570;7.244;2023-04-24T13:12:08;6.12;;;3.30;;
27833;SDS011;15200;50.570;7.244;2023-04-24T13:14:36;4.33;;;3.15;;
27833;SDS011;15200;50.570;7.244;2023-04-24T13:17:03;7.30;;;3.27;;
27833;SDS011;15200;50.570;7.244;2023-04-24T13:19:35;9.70;;;3.67;;
27833;SDS011;15200;50.570;7.244;2023-04-24T13:22:00;5.50;;;3.30;;
27833;SDS011;15200;50.570;7.244;2023-04-24T13:24:27;6.50;;;3.37;;
27833;SDS011;15200;50.570;7.244;2023-04-24T13:26:55;6.10;;;3.30;;
27833;SDS011;15200;50.570;7.244;2023-04-24T13:29:22;7.53;;;3.10;;
27833;SDS011;15200;50.570;7.244;2023-04-24T13:31:50;5.70;;;2.52;;
27833;SDS011;15200;50.570;7.244;2023-04-24T13:34:18;5.80;;;3.05;;
27833;SDS011;15200;50.570;7.244;2023-04-24T13:36:45;3.20;;;2.60;;
27833;SDS011;15200;50.570;7.244;2023-04-24T13:39:12;4.22;;;2.90;;
27833;SDS011;15200;50.570;7.244;2023-04-24T13:41:40;4.67;;;2.70;;
27833;SDS011;15200;50.570;7.244;2023-04-24T13:44:07;5.00;;;2.42;;
27833;SDS011;15200;50.570;7.244;2023-04-24T13:46:34;4.97;;;2.20;;
27833;SDS011;15200;50.570;7.244;2023-04-24T13:49:02;5.78;;;2.72;;
27833;SDS011;15200;50.570;7.244;2023-04-24T13:51:32;5.97;;;2.70;;
27833;SDS011;15200;50.570;7.244;2023-04-24T13:53:59;4.42;;;2.37;;
27833;SDS011;15200;50.570;7.244;2023-04-24T13:56:26;4.37;;;2.52;;
27833;SDS011;15200;50.570;7.244;2023-04-24T13:58:54;6.08;;;3.27;;
27833;SDS011;15200;50.570;7.244;2023-04-24T14:01:21;4.33;;;3.00;;
27833;SDS011;15200;50.570;7.244;2023-04-24T14:03:50;4.70;;;2.85;;
27833;SDS011;15200;50.570;7.244;2023-04-24T14:06:18;5.00;;;3.22;;
27833;SDS011;15200;50.570;7.244;2023-04-24T14:08:46;6.00;;;3.72;;
27833;SDS011;15200;50.570;7.244;2023-04-24T14:11:13;5.53;;;3.20;;
27833;SDS011;15200;50.570;7.244;2023-04-24T14:13:41;6.03;;;3.67;;
27833;SDS011;15200;50.570;7.244;2023-04-24T14:16:09;4.40;;;3.10;;
27833;SDS011;15200;50.570;7.244;2023-04-24T14:18:37;5.28;;;3.10;;
27833;SDS011;15200;50.570;7.244;2023-04-24T14:21:04;8.45;;;3.45;;
27833;SDS011;15200;50.570;7.244;2023-04-24T14:23:32;6.45;;;3.27;;
27833;SDS011;15200;50.570;7.244;2023-04-24T14:25:59;6.22;;;3.15;;
27833;SDS011;15200;50.570;7.244;2023-04-24T14:28:26;6.65;;;3.45;;
27833;SDS011;15200;50.570;7.244;2023-04-24T14:30:54;7.97;;;3.47;;
27833;SDS011;15200;50.570;7.244;2023-04-24T14:33:21;6.95;;;3.70;;
27833;SDS011;15200;50.570;7.244;2023-04-24T14:35:49;8.23;;;3.65;;
27833;SDS011;15200;50.570;7.244;2023-04-24T14:38:16;7.67;;;3.40;;
27833;SDS011;15200;50.570;7.244;2023-04-24T14:40:43;7.65;;;4.20;;
27833;SDS011;15200;50.570;7.244;2023-04-24T14:43:10;8.13;;;3.72;;
27833;SDS011;15200;50.570;7.244;2023-04-24T14:45:38;5.65;;;3.00;;
27833;SDS011;15200;50.570;7.244;2023-04-24T14:48:07;5.78;;;2.77;;
27833;SDS011;15200;50.570;7.244;2023-04-24T14:50:35;5.53;;;2.45;;
27833;SDS011;15200;50.570;7.244;2023-04-24T14:53:02;4.47;;;1.95;;
27833;SDS011;15200;50.570;7.244;2023-04-24T14:55:30;3.62;;;2.35;;
27833;SDS011;15200;50.570;7.244;2023-04-24T14:58:01;6.25;;;2.92;;
27833;SDS011;15200;50.570;7.244;2023-04-24T15:00:28;7.17;;;3.10;;
27833;SDS011;15200;50.570;7.244;2023-04-24T15:02:56;7.25;;;2.70;;
27833;SDS011;15200;50.570;7.244;2023-04-24T15:05:23;5.53;;;3.52;;
27833;SDS011;15200;50.570;7.244;2023-04-24T15:07:51;4.90;;;2.95;;
27833;SDS011;15200;50.570;7.244;2023-04-24T15:10:18;4.35;;;3.30;;
27833;SDS011;15200;50.570;7.244;2023-04-24T15:12:47;5.05;;;2.65;;
27833;SDS011;15200;50.570;7.244;2023-04-24T15:15:14;6.15;;;3.58;;
27833;SDS011;15200;50.570;7.244;2023-04-24T15:17:42;3.58;;;2.80;;